Time;durP1;ratioP1;P1;durP2;ratioP2;P2;SDS_P1;SDS_P2;PMS_P1;PMS_P2;Temp;Humidity;BMP_temperature;BMP_pressure;BME280_temperature;BME280_humidity;BME280_pressure;Samples;Min_cycle;Max_cycle;Signal;HPM_P1;HPM_P2
2022/09/27 05:19:25;;;;;;;5.97;0.30;;;15.10;70.00;;;;;;4814084;29;20054;-73
2022/09/27 05:21:51;;;;;;;2.40;0.30;;;15.20;69.70;;;;;;4823850;29;20369;-76
2022/09/27 05:24:16;;;;;;;3.67;0.40;;;15.20;70.00;;;;;;4812125;29;20183;-75
2022/09/27 05:26:44;;;;;;;6.10;0.52;;;15.20;70.10;;;;;;4807982;29;20526;-73
2022/09/27 05:29:10;;;;;;;6.00;0.63;;;15.30;70.00;;;;;;4824083;29;20043;-75
2022/09/27 05:31:36;;;;;;;2.33;0.30;;;15.30;70.20;;;;;;4818114;29;20057;-74
2022/09/27 05:34:01;;;;;;;9.90;1.00;;;15.40;70.20;;;;;;4798429;29;20055;-70
2022/09/27 05:36:27;;;;;;;4.30;0.40;;;15.40;70.60;;;;;;4809794;29;20059;-75
2022/09/27 05:38:53;;;;;;;7.95;1.05;;;15.40;70.70;;;;;;4819522;29;20358;-76
2022/09/27 05:41:19;;;;;;;11.43;0.80;;;15.50;70.60;;;;;;4827926;29;20050;-75
2022/09/27 05:43:46;;;;;;;6.63;0.90;;;15.50;70.60;;;;;;4827974;29;20061;-75
2022/09/27 05:46:11;;;;;;;5.22;0.70;;;15.50;71.30;;;;;;4828140;29;20054;-72
2022/09/27 05:48:37;;;;;;;3.92;0.45;;;15.50;70.40;;;;;;4818774;29;20072;-72
2022/09/27 05:51:03;;;;;;;4.03;0.50;;;15.50;70.00;;;;;;4820777;29;20450;-73
2022/09/27 05:53:30;;;;;;;3.63;0.30;;;15.60;69.40;;;;;;4827828;29;20050;-72
2022/09/27 05:56:00;;;;;;;1.88;0.47;;;15.60;68.60;;;;;;4827550;29;20068;-71
2022/09/27 05:58:27;;;;;;;2.80;0.30;;;15.50;69.00;;;;;;4804424;29;20139;-74
2022/09/27 06:00:53;;;;;;;6.13;0.73;;;15.40;68.40;;;;;;4809729;29;20095;-75
2022/09/27 06:03:19;;;;;;;4.43;0.40;;;15.40;68.90;;;;;;4809906;29;20051;-72
2022/09/27 06:05:45;;;;;;;15.05;1.50;;;15.40;69.20;;;;;;4808972;29;20201;-72
2022/09/27 06:08:11;;;;;;;19.45;1.42;;;15.40;69.00;;;;;;4809209;29;20110;-72
2022/09/27 06:10:39;;;;;;;4.28;0.45;;;15.40;68.80;;;;;;4809096;29;20051;-75
2022/09/27 06:13:08;;;;;;;7.30;0.47;;;15.40;68.60;;;;;;4823366;29;20050;-72
2022/09/27 06:15:38;;;;;;;8.18;0.55;;;15.40;68.70;;;;;;4810684;29;20536;-75
2022/09/27 06:18:10;;;;;;;5.10;0.20;;;15.30;69.20;;;;;;4826524;29;20061;-73
2022/09/27 06:20:38;;;;;;;3.90;0.40;;;15.30;69.30;;;;;;4827111;29;20046;-73
2022/09/27 06:23:09;;;;;;;5.15;0.93;;;15.30;69.50;;;;;;4812193;29;20043;-73
2022/09/27 06:25:35;;;;;;;4.55;0.43;;;15.40;69.60;;;;;;4808588;29;20046;-71
2022/09/27 06:28:02;;;;;;;6.97;0.43;;;15.40;69.70;;;;;;4808432;29;20051;-73
2022/09/27 06:30:29;;;;;;;5.55;0.73;;;15.40;69.60;;;;;;4808299;29;20066;-74
2022/09/27 06:32:56;;;;;;;6.32;0.77;;;15.40;69.70;;;;;;4821762;29;20050;-73
2022/09/27 06:35:23;;;;;;;4.03;0.20;;;15.40;69.70;;;;;;4826834;29;20458;-74
2022/09/27 06:37:50;;;;;;;4.80;0.40;;;15.50;69.80;;;;;;4827030;29;20458;-73
2022/09/27 06:40:17;;;;;;;4.13;0.40;;;15.50;69.90;;;;;;4826934;29;20121;-73
2022/09/27 06:42:43;;;;;;;4.32;0.22;;;15.50;69.90;;;;;;4814391;29;20062;-74
2022/09/27 06:45:09;;;;;;;3.30;0.52;;;15.50;69.90;;;;;;4792791;29;20054;-74
2022/09/27 06:47:36;;;;;;;3.72;0.25;;;15.50;70.00;;;;;;4808623;29;20055;-74
2022/09/27 06:50:05;;;;;;;1.10;0.20;;;15.50;70.00;;;;;;4792028;29;20367;-74
2022/09/27 06:52:35;;;;;;;3.45;0.75;;;15.60;70.00;;;;;;4802167;29;20133;-72
2022/09/27 06:55:03;;;;;;;15.35;1.42;;;15.60;70.00;;;;;;4824964;29;20128;-75
2022/09/27 07:00:23;;;;;;;12.13;1.77;;;15.60;70.10;;;;;;4826471;29;20125;-75
2022/09/27 07:02:59;;;;;;;6.53;0.60;;;15.60;70.20;;;;;;4814602;29;20061;-74
2022/09/27 07:05:29;;;;;;;5.38;0.60;;;15.70;70.30;;;;;;4807361;29;20054;-74
2022/09/27 07:07:56;;;;;;;5.43;0.45;;;15.70;70.40;;;;;;4808100;29;20069;-72
2022/09/27 07:10:27;;;;;;;11.20;1.10;;;15.70;70.40;;;;;;4808013;29;20055;-73
2022/09/27 07:12:53;;;;;;;6.53;0.50;;;15.70;70.20;;;;;;4819629;29;20054;-69
2022/09/27 07:15:20;;;;;;;4.45;0.70;;;15.60;70.20;;;;;;4825970;29;20056;-71
2022/09/27 07:17:47;;;;;;;3.05;0.28;;;15.60;70.20;;;;;;4825945;29;20123;-71
2022/09/27 07:20:13;;;;;;;3.28;0.85;;;15.50;70.00;;;;;;4808479;29;20542;-76
2022/09/27 07:22:44;;;;;;;2.92;0.30;;;15.40;69.80;;;;;;4815481;29;20084;-76
2022/09/27 07:25:10;;;;;;;4.40;0.50;;;15.30;69.80;;;;;;4811956;29;20055;-78
2022/09/27 07:27:36;;;;;;;6.80;0.60;;;15.30;70.10;;;;;;4815828;29;20061;-77
2022/09/27 07:30:01;;;;;;;1.90;0.30;;;15.40;70.30;;;;;;4801761;29;20129;-77
2022/09/27 07:32:27;;;;;;;4.80;0.30;;;15.40;70.50;;;;;;4825391;29;20049;-83
2022/09/27 07:34:53;;;;;;;2.78;0.30;;;15.40;70.50;;;;;;4809774;29;20450;-75
2022/09/27 07:37:19;;;;;;;3.92;0.38;;;15.40;70.40;;;;;;4825319;29;20101;-76
2022/09/27 07:39:44;;;;;;;5.65;0.47;;;15.50;70.30;;;;;;4811340;29;20061;-75
2022/09/27 07:42:10;;;;;;;5.00;0.20;;;15.50;70.40;;;;;;4820599;29;20047;-75
2022/09/27 07:44:36;;;;;;;4.50;0.50;;;15.50;70.40;;;;;;4794538;29;20541;-75
2022/09/27 07:47:06;;;;;;;1.25;0.40;;;15.60;70.50;;;;;;4811347;29;20070;-76
2022/09/27 07:49:32;;;;;;;5.32;0.20;;;15.60;70.60;;;;;;4812502;29;20451;-75
2022/09/27 07:51:57;;;;;;;5.70;0.60;;;15.70;70.70;;;;;;4812332;29;20050;-77
2022/09/27 07:54:23;;;;;;;3.42;0.30;;;15.70;70.80;;;;;;4810245;29;20050;-77
2022/09/27 07:56:49;;;;;;;10.30;0.50;;;15.70;70.90;;;;;;4828536;29;20354;-77
2022/09/27 07:59:15;;;;;;;7.60;0.68;;;15.70;71.00;;;;;;4829247;29;20061;-76
2022/09/27 08:01:40;;;;;;;10.02;0.82;;;15.70;71.00;;;;;;4826263;29;20099;-78
2022/09/27 08:04:06;;;;;;;3.75;0.30;;;15.70;71.00;;;;;;4811066;29;20054;-75
2022/09/27 08:06:32;;;;;;;7.60;0.50;;;15.80;71.20;;;;;;4810759;29;20158;-76
2022/09/27 08:08:58;;;;;;;5.63;0.45;;;15.80;71.40;;;;;;4815605;29;20137;-75
2022/09/27 09:24:41;;;;;;;4.20;0.47;;;16.00;71.60;;;;;;5001118;24;20051;-73
2022/09/27 09:27:21;;;;;;;5.15;0.40;;;16.00;71.60;;;;;;4826492;29;20058;-75
2022/09/27 09:30:07;;;;;;;4.22;0.70;;;16.00;71.50;;;;;;4817192;29;20053;-74
2022/09/27 09:32:54;;;;;;;4.72;0.70;;;15.90;71.50;;;;;;4826817;29;20069;-75
2022/09/27 09:35:25;;;;;;;5.00;0.70;;;15.90;71.60;;;;;;4827472;29;20054;-74
2022/09/27 09:38:05;;;;;;;11.05;0.65;;;15.90;71.70;;;;;;4826900;29;20060;-74
2022/09/27 09:40:47;;;;;;;3.22;0.80;;;15.90;71.80;;;;;;4827748;29;20042;-74
2022/09/27 09:43:32;;;;;;;3.17;0.40;;;16.00;71.80;;;;;;4827358;29;20058;-74
2022/09/27 09:46:19;;;;;;;3.85;0.40;;;16.00;71.90;;;;;;4827357;29;20091;-74
2022/09/27 09:48:57;;;;;;;6.22;0.45;;;16.00;71.90;;;;;;4826986;29;20077;-74
2022/09/27 09:51:34;;;;;;;4.60;0.50;;;16.00;71.90;;;;;;4827773;29;20049;-75
2022/09/27 09:54:14;;;;;;;6.47;0.40;;;16.00;71.90;;;;;;4827693;29;20509;-75
2022/09/27 09:57:06;;;;;;;3.10;0.90;;;16.00;71.90;;;;;;4827161;29;20054;-74
2022/09/27 09:59:42;;;;;;;1.45;0.32;;;16.00;71.90;;;;;;4817668;29;20429;-75
2022/09/27 10:02:33;;;;;;;2.95;0.35;;;16.00;71.90;;;;;;4825912;29;20054;-74
2022/09/27 10:05:04;;;;;;;1.90;0.10;;;16.00;71.70;;;;;;4826845;29;20054;-74
2022/09/27 10:07:32;;;;;;;3.42;0.20;;;16.00;71.80;;;;;;4827621;29;20058;-74
2022/09/27 10:10:03;;;;;;;2.63;0.22;;;16.00;70.70;;;;;;4827856;29;20043;-76
2022/09/27 10:12:29;;;;;;;2.17;0.30;;;16.00;70.40;;;;;;4826816;29;20050;-74
2022/09/27 10:15:00;;;;;;;3.60;0.30;;;16.00;70.40;;;;;;4826525;29;20071;-75
2022/09/27 10:17:34;;;;;;;2.67;0.20;;;16.00;70.50;;;;;;4816835;29;20047;-76
2022/09/27 10:20:02;;;;;;;3.78;0.52;;;16.00;70.60;;;;;;4808325;29;20162;-76
2022/09/27 10:22:33;;;;;;;4.50;0.30;;;16.00;70.80;;;;;;4822831;29;20054;-76
2022/09/27 10:25:02;;;;;;;4.28;0.47;;;16.00;70.90;;;;;;4826801;29;20071;-75
2022/09/27 10:27:42;;;;;;;6.05;0.40;;;16.00;71.00;;;;;;4825543;29;20051;-74
2022/09/27 10:30:28;;;;;;;2.50;0.40;;;16.00;70.70;;;;;;4816177;29;20042;-74
2022/09/27 10:33:02;;;;;;;3.63;0.32;;;16.00;69.80;;;;;;4801436;29;20053;-75
2022/09/27 10:35:36;;;;;;;3.83;0.30;;;15.90;69.90;;;;;;4817358;29;20093;-74
2022/09/27 10:38:25;;;;;;;3.97;0.20;;;15.80;70.30;;;;;;4816220;29;20042;-75
2022/09/27 10:40:54;;;;;;;1.80;0.10;;;15.80;70.60;;;;;;4817170;29;20133;-75
2022/09/27 10:43:28;;;;;;;2.53;0.30;;;15.80;70.40;;;;;;4817269;29;20129;-74
2022/09/27 10:46:16;;;;;;;1.10;0.10;;;15.80;70.10;;;;;;4816600;29;20057;-74
2022/09/27 10:48:43;;;;;;;3.40;0.22;;;15.80;70.20;;;;;;4814693;29;20103;-78
2022/09/27 10:51:28;;;;;;;3.17;0.30;;;15.90;70.30;;;;;;4817124;29;20134;-78
2022/09/27 10:53:59;;;;;;;2.22;0.20;;;15.90;70.40;;;;;;4818013;29;20457;-75
2022/09/27 10:56:33;;;;;;;2.13;0.30;;;15.90;70.30;;;;;;4818389;29;20050;-76
2022/09/27 10:59:01;;;;;;;1.75;0.10;;;15.90;70.20;;;;;;4815795;29;20145;-78
2022/09/27 11:01:41;;;;;;;2.78;0.25;;;15.90;70.10;;;;;;4817230;29;20082;-76
2022/09/27 11:04:23;;;;;;;1.58;0.10;;;15.90;70.50;;;;;;4817665;29;20057;-75
2022/09/27 11:06:49;;;;;;;2.15;0.10;;;15.90;70.10;;;;;;4816940;29;20058;-76
2022/09/27 11:09:22;;;;;;;1.95;0.20;;;15.90;70.00;;;;;;4817367;29;20118;-76
2022/09/27 11:11:49;;;;;;;2.38;0.10;;;15.90;69.80;;;;;;4816753;29;20062;-74
2022/09/27 11:14:21;;;;;;;1.98;0.15;;;15.90;69.80;;;;;;4817115;29;20066;-75
2022/09/27 11:16:56;;;;;;;2.78;0.25;;;15.90;69.80;;;;;;4816599;29;20051;-75
2022/09/27 11:19:40;;;;;;;4.20;0.30;;;15.90;69.80;;;;;;4815223;29;20055;-76
2022/09/27 12:38:09;;;;;;;11.13;1.10;;;17.20;71.30;;;;;;4768963;30;20420;-71
2022/09/27 12:40:39;;;;;;;11.93;1.77;;;17.20;71.40;;;;;;4771643;30;20078;-76
2022/09/27 13:40:48;;;;;;;20.25;1.88;;;17.80;70.00;;;;;;4798751;29;20054;-80
2022/09/27 13:43:41;;;;;;;10.25;1.08;;;17.80;70.90;;;;;;4807758;29;20046;-75
2022/09/27 15:22:32;;;;;;;6.80;0.93;;;17.20;70.70;;;;;;5051929;24;20458;-72
2022/09/27 15:25:35;;;;;;;14.13;0.80;;;17.20;70.90;;;;;;4808216;29;20077;-73
2022/09/27 15:28:25;;;;;;;4.85;0.40;;;17.20;70.80;;;;;;4806822;29;20115;-73
2022/09/27 15:30:56;;;;;;;6.38;0.70;;;17.20;70.60;;;;;;4807935;29;20071;-72
2022/09/27 15:33:28;;;;;;;7.18;0.85;;;17.20;70.40;;;;;;4807263;29;20138;-73
2022/09/27 15:35:56;;;;;;;9.00;0.80;;;17.10;70.10;;;;;;4807262;29;20054;-72
2022/09/27 15:38:31;;;;;;;4.70;1.00;;;17.10;69.60;;;;;;4807437;29;20043;-73
2022/09/27 15:41:02;;;;;;;11.50;0.93;;;17.10;69.20;;;;;;4807900;29;20046;-73
2022/09/27 15:43:38;;;;;;;13.52;1.77;;;17.10;69.30;;;;;;4807774;29;20067;-74
2022/09/27 15:46:24;;;;;;;29.65;2.85;;;17.10;69.40;;;;;;4807845;29;20057;-72
2022/09/27 15:49:21;;;;;;;23.17;2.08;;;17.10;69.10;;;;;;4806889;29;20469;-73
2022/09/27 15:51:49;;;;;;;13.90;1.67;;;17.10;68.80;;;;;;4807778;29;20062;-73
2022/09/27 15:54:41;;;;;;;27.75;2.60;;;17.10;68.40;;;;;;4807987;29;20055;-71
2022/09/27 15:57:11;;;;;;;26.00;2.10;;;17.00;68.30;;;;;;4805799;29;20055;-75
2022/09/27 18:13:16;;;;;;;6.55;0.50;;;16.60;64.40;;;;;;4791470;29;20424;-70
2022/09/27 18:15:42;;;;;;;4.38;0.60;;;16.40;63.80;;;;;;4788762;29;20064;-74
2022/09/27 18:18:08;;;;;;;3.47;0.55;;;16.30;63.80;;;;;;4803793;29;20051;-74
2022/09/27 18:20:34;;;;;;;4.20;0.50;;;16.20;63.90;;;;;;4809036;29;20065;-74
2022/09/27 18:23:00;;;;;;;1.98;0.30;;;16.10;63.80;;;;;;4797373;29;20460;-73
2022/09/27 18:25:26;;;;;;;1.92;0.68;;;16.00;64.10;;;;;;4782205;30;20112;-74
2022/09/27 18:27:54;;;;;;;1.63;0.60;;;15.90;64.40;;;;;;4786643;30;20048;-74
2022/09/27 18:30:22;;;;;;;2.83;0.40;;;15.80;64.50;;;;;;4775999;30;20059;-71
2022/09/27 18:32:50;;;;;;;3.53;0.60;;;15.80;64.80;;;;;;4759959;30;20060;-76
2022/09/27 18:35:16;;;;;;;2.53;0.47;;;15.70;64.90;;;;;;4775180;30;20055;-72
2022/09/27 18:37:41;;;;;;;3.97;0.73;;;15.70;65.20;;;;;;4786599;30;20139;-74
2022/09/27 18:40:07;;;;;;;3.13;0.50;;;15.60;66.00;;;;;;4782003;30;20044;-76
2022/09/27 18:42:33;;;;;;;2.75;0.40;;;15.60;66.20;;;;;;4772772;30;20399;-74
2022/09/27 18:44:59;;;;;;;1.27;0.35;;;15.60;65.90;;;;;;4786385;30;20055;-74
2022/09/27 18:47:25;;;;;;;3.53;0.77;;;15.50;66.30;;;;;;4790450;30;20047;-72
2022/09/27 18:49:50;;;;;;;1.45;0.15;;;15.50;65.80;;;;;;4790269;30;20092;-74
2022/09/27 18:52:16;;;;;;;2.63;0.60;;;15.50;66.20;;;;;;4790759;30;20057;-74
2022/09/27 18:54:42;;;;;;;2.63;0.60;;;15.40;66.10;;;;;;4774453;30;20047;-74
2022/09/27 18:57:08;;;;;;;6.35;0.60;;;15.40;66.20;;;;;;4790362;30;20136;-74
2022/09/27 18:59:33;;;;;;;2.90;0.65;;;15.40;66.10;;;;;;4790279;30;20130;-75
2022/09/27 19:01:59;;;;;;;2.33;0.60;;;15.40;66.00;;;;;;4759943;30;20063;-74
2022/09/27 19:04:25;;;;;;;3.13;1.00;;;15.40;65.80;;;;;;4786339;30;20094;-74
2022/09/27 19:06:53;;;;;;;3.42;1.05;;;15.30;65.80;;;;;;4790588;30;20183;-72
2022/09/27 19:09:19;;;;;;;5.35;1.15;;;15.30;66.00;;;;;;4778457;30;20426;-75
2022/09/27 19:11:44;;;;;;;4.63;0.85;;;15.20;66.50;;;;;;4790313;30;20047;-74
2022/09/27 19:14:14;;;;;;;2.50;0.68;;;15.30;66.80;;;;;;4782251;30;20126;-75
2022/09/27 19:16:40;;;;;;;5.97;1.08;;;15.30;67.10;;;;;;4772791;30;20095;-74
2022/09/27 19:19:06;;;;;;;4.80;1.35;;;15.40;67.30;;;;;;4801611;29;20102;-74
2022/09/27 19:21:32;;;;;;;2.30;0.90;;;15.40;67.50;;;;;;4772488;30;20098;-75
2022/09/27 19:23:57;;;;;;;1.90;0.73;;;15.50;67.70;;;;;;4772047;30;20048;-75
2022/09/27 19:26:25;;;;;;;2.55;0.77;;;15.60;67.80;;;;;;4779773;30;20059;-76
2022/09/27 19:28:52;;;;;;;3.50;0.85;;;15.70;67.90;;;;;;4789755;30;20082;-75
2022/09/27 19:31:20;;;;;;;3.75;0.63;;;15.70;68.00;;;;;;4789743;30;20055;-75
2022/09/27 19:33:46;;;;;;;1.27;0.50;;;15.70;68.10;;;;;;4760129;29;20051;-74
2022/09/27 19:36:14;;;;;;;2.17;0.75;;;15.80;68.10;;;;;;4796041;30;20464;-75
2022/09/27 19:38:40;;;;;;;2.00;0.70;;;15.80;68.00;;;;;;4796071;30;20054;-75
2022/09/27 19:41:08;;;;;;;3.85;0.60;;;15.90;68.20;;;;;;4796076;30;20476;-76
2022/09/27 19:43:34;;;;;;;2.08;0.65;;;15.90;68.10;;;;;;4796053;30;20054;-76
2022/09/27 19:46:07;;;;;;;1.58;0.63;;;15.90;68.20;;;;;;4795743;30;20432;-74
2022/09/27 19:48:36;;;;;;;2.55;0.68;;;16.00;68.30;;;;;;4795649;30;20047;-76
2022/09/27 19:51:04;;;;;;;1.30;0.55;;;16.00;68.20;;;;;;4795398;30;20134;-76
2022/09/27 19:53:31;;;;;;;1.13;0.50;;;16.00;68.30;;;;;;4780099;30;20058;-75
2022/09/27 19:56:02;;;;;;;2.20;0.70;;;16.00;68.30;;;;;;4795698;30;20051;-75
2022/09/27 19:58:29;;;;;;;1.55;0.90;;;16.10;68.40;;;;;;4795830;30;20066;-75
2022/09/27 20:01:02;;;;;;;2.75;0.50;;;16.10;68.30;;;;;;4791502;30;20113;-76
2022/09/27 20:03:28;;;;;;;2.83;0.80;;;16.10;68.40;;;;;;4770236;30;20400;-76
2022/09/27 20:05:58;;;;;;;2.60;0.50;;;16.10;68.50;;;;;;4777729;30;20059;-75
2022/09/27 20:08:25;;;;;;;1.52;0.40;;;16.10;68.50;;;;;;4794306;30;20051;-75
2022/09/27 20:11:08;;;;;;;2.20;0.50;;;16.10;68.50;;;;;;4795598;30;20450;-76
2022/09/27 20:13:35;;;;;;;1.85;0.60;;;16.10;68.50;;;;;;4779759;30;20071;-75
2022/09/27 20:16:07;;;;;;;1.83;0.47;;;16.10;68.50;;;;;;4795341;30;20078;-75
2022/09/27 20:18:33;;;;;;;1.48;0.40;;;16.20;68.60;;;;;;4795411;30;20051;-75
2022/09/27 20:21:03;;;;;;;4.50;0.70;;;16.20;68.70;;;;;;4779722;29;20426;-69
2022/09/27 20:23:31;;;;;;;3.53;0.80;;;16.20;68.80;;;;;;4812413;29;20055;-74
2022/09/27 20:26:06;;;;;;;3.40;0.55;;;16.20;68.80;;;;;;4790420;29;20526;-74
2022/09/27 20:28:33;;;;;;;2.88;0.73;;;16.20;68.80;;;;;;4794830;30;20112;-74
2022/09/27 20:31:01;;;;;;;2.03;0.57;;;16.20;68.90;;;;;;4790715;30;20113;-74
2022/09/27 20:33:48;;;;;;;3.00;0.50;;;16.20;69.00;;;;;;4761814;30;20058;-74
2022/09/27 20:36:14;;;;;;;1.15;0.50;;;16.20;69.10;;;;;;4777364;30;20130;-74
2022/09/27 20:38:41;;;;;;;2.78;0.50;;;16.20;69.20;;;;;;4777523;30;20130;-74
2022/09/27 20:41:08;;;;;;;1.02;0.32;;;16.20;69.10;;;;;;4786816;30;20043;-74
2022/09/27 20:43:34;;;;;;;2.55;0.43;;;16.20;69.20;;;;;;4786838;30;20063;-74
2022/09/27 20:46:09;;;;;;;1.15;0.47;;;16.20;69.20;;;;;;4776060;30;20190;-75
2022/09/27 20:48:37;;;;;;;2.08;0.35;;;16.20;69.30;;;;;;4792288;30;20131;-73
2022/09/27 20:51:03;;;;;;;2.55;0.75;;;16.20;69.30;;;;;;4792214;30;20063;-73
2022/09/27 20:53:29;;;;;;;1.23;0.73;;;16.20;69.40;;;;;;4792706;30;20121;-73
